Mabscott, WV (25871)

2:05 PM EST on February 08, 2016 (GMT -0500)
Raleigh County Memorial | | Change Station
CLOSE
Current Station
Airport
Location: Beckley,
Elevation: 2513 ft
Nearby Weather Stations
Active Advisory: Winter Weather Advisory

Elev 2513 ft 37.79 °N, 81.12 °W | Updated 14 minutes ago

Overcast
Overcast
39 °F
Feels Like 33 °F
N
8
Wind Variable Wind from SSW

Today
High -- | Low -- °F
--% Chance of Precip.
Yesterday
High -- | Low -- °F
Precip. -- in
Pressure 29.63 in
Visibility 10.0 miles
Clouds Few 1900 ft
Mostly Cloudy 2700 ft
Overcast 3600 ft
Windchill 33 °F
Dew Point 28 °F
Humidity 65%
Rainfall 0.02 in
Snow Depth Not available.
7:22 AM 5:55 PM
New Moon, 0% visible
METAR KBKW 081851Z AUTO 21007KT 10SM FEW019 BKN027 OVC036 04/M02 A2958 RMK AO2 SNE02 SLP034 P0000 T00391022
Pressure 29.63 in
Visibility 10.0 miles
Clouds Few 1900 ft
Mostly Cloudy 2700 ft
Overcast 3600 ft
Windchill 33 °F
Dew Point 28 °F
Humidity 65%
Rainfall 0.02 in
Snow Depth Not available.
7:22 AM 5:55 PM
New Moon, 0% visible
METAR KBKW 081851Z AUTO 21007KT 10SM FEW019 BKN027 OVC036 04/M02 A2958 RMK AO2 SNE02 SLP034 P0000 T00391022

10-Day Weather Forecast

Almanac

Astronomy

Feb. 08, 2016 Rise Set
Actual Time
Civil Twilight
Nautical Twilight
Astronomical Twilight
Moon
Length of Visible Light
Length of Day
Tomorrow will be .
, % of the Moon is Illuminated

Today's Extremes

State Highs State Lows

Community

WunderPhotos

Upload Photos

1,891,485 photos uploaded!

WunderBlog® & News

Nearby

Air Quality

  Air Quality AQ Index Pollutant
Not available.

Snow Depth

Station Depth Elevation

Earthquake Activity

City Distance Mag. Time & Date
Minimum magnitude displayed is 2.5.

Coastal Water Temperatures

Place Temperature

Stations

Nearby Weather Stations

Station Location Temp. Windchill Dew Point Humidity Wind Precip. Elev Updated Type
                   

Watches & Warnings

Winter Weather Advisory
Issued: 10:31 AM EST Feb. 8, 2016 – National Weather Service

... Winter Weather Advisory remains in effect from 7 PM this
evening to 7 am EST Wednesday...

* hazard types... snow.

* Snow accumulations... snow accumulation of 2 to 6 inches over a
36 hour period. Some settling and melting of fallen snow is
expected to occur during the advisory period.

* Timing... snow will be around for most of the week with varying
intensity.

* Impacts... travel may be difficult at times. Visibilities will
be limited at times.

Precautionary/preparedness actions...

A Winter Weather Advisory for snow means that periods of snow
will cause primarily travel difficulties. Be prepared for snow
covered roads and limited visibilities... and use caution while
driving.